Terminal Aerodrome Forecast
Issued by NWS Jackson, MS

Home | Current Version | Previous Version | Text Only | Print | Product List | Glossary On
Versions: 1 2 3 4 5 6 7 8 9 10 11 12 13 14 15 16
000
FTUS44 KJAN 210500
TAFJAN
TAF
KJAN 210520Z 2106/2206 18003KT P6SM FEW060
     FM211100 00000KT 4SM BR SKC
     FM211300 25005KT P6SM SCT050=

USA.gov is the U.S. government's official web portal to all federal, state and local government web resources and services.